createdAt,value
2019-05-21T00:01:04.095Z,19.73
2019-05-21T00:03:35.729Z,19.73
2019-05-21T00:06:08.415Z,19.73
2019-05-21T00:08:39.669Z,19.75
2019-05-21T00:11:10.919Z,19.77
2019-05-21T00:13:42.003Z,19.75
2019-05-21T00:16:13.201Z,19.79
2019-05-21T00:18:44.291Z,19.81
2019-05-21T00:21:15.363Z,19.84
2019-05-21T00:23:46.742Z,19.81
2019-05-21T00:26:18.300Z,19.82
2019-05-21T00:29:26.209Z,19.84
2019-05-21T00:32:35.151Z,19.92
2019-05-21T00:35:47.563Z,19.99
2019-05-21T00:38:55.679Z,20.04
2019-05-21T00:42:03.488Z,20.06
2019-05-21T00:44:38.141Z,20.05
2019-05-21T00:47:09.674Z,20.06
2019-05-21T00:49:40.615Z,19.97
2019-05-21T00:52:12.272Z,19.99
2019-05-21T00:54:43.623Z,19.96
2019-05-21T00:57:14.773Z,19.95
2019-05-21T00:59:46.635Z,19.89
2019-05-21T01:02:17.992Z,19.85
2019-05-21T01:05:00.114Z,19.79
2019-05-21T01:07:23.044Z,19.74
2019-05-21T01:09:54.601Z,19.67
2019-05-21T01:12:25.953Z,19.60
2019-05-21T01:14:57.408Z,19.53
2019-05-21T01:17:28.866Z,19.47
2019-05-21T01:20:00.621Z,19.41
2019-05-21T01:22:31.769Z,19.40
2019-05-21T01:25:03.225Z,19.36
2019-05-21T01:27:34.270Z,19.38
2019-05-21T01:30:06.546Z,19.44
2019-05-21T01:32:37.697Z,19.52
2019-05-21T01:35:17.020Z,19.60
2019-05-21T01:37:42.131Z,19.70
2019-05-21T01:40:13.490Z,19.82
2019-05-21T01:42:44.838Z,19.89
2019-05-21T01:45:16.294Z,19.96
2019-05-21T01:47:47.644Z,20.03
2019-05-21T01:50:18.823Z,20.06
2019-05-21T01:52:50.362Z,20.11
2019-05-21T01:55:21.812Z,20.16
2019-05-21T01:57:53.055Z,20.17
2019-05-21T02:00:24.615Z,20.21
2019-05-21T02:02:56.175Z,20.23
2019-05-21T02:05:32.914Z,20.19
2019-05-21T02:08:01.019Z,20.19
2019-05-21T02:10:32.782Z,20.18
2019-05-21T02:13:03.926Z,20.17
2019-05-21T02:15:35.593Z,20.16
2019-05-21T02:18:07.356Z,20.21
2019-05-21T02:20:39.221Z,20.20
2019-05-21T02:23:10.569Z,20.20
2019-05-21T02:25:42.165Z,20.20
2019-05-21T02:28:13.621Z,20.24
2019-05-21T02:30:44.729Z,20.26
2019-05-21T02:33:16.389Z,20.27
2019-05-21T02:35:54.099Z,20.28
2019-05-21T02:38:21.545Z,20.25
2019-05-21T02:40:53.819Z,20.25
2019-05-21T02:43:25.480Z,20.26
2019-05-21T02:45:56.620Z,20.28
2019-05-21T02:48:27.973Z,20.32
2019-05-21T02:50:59.427Z,20.38
2019-05-21T02:53:34.281Z,20.44
2019-05-21T02:56:03.787Z,20.54
2019-05-21T02:58:35.015Z,20.59
2019-05-21T03:01:08.220Z,20.68
2019-05-21T03:03:39.805Z,20.73
2019-05-21T03:06:14.308Z,20.79
2019-05-21T03:08:44.825Z,20.86
2019-05-21T03:11:16.397Z,20.94
2019-05-21T03:13:47.839Z,21.02
2019-05-21T03:16:19.201Z,21.09
2019-05-21T03:18:50.646Z,21.16
2019-05-21T03:21:21.796Z,21.10
2019-05-21T03:23:53.453Z,21.16
2019-05-21T03:26:24.707Z,21.19
2019-05-21T03:28:56.367Z,21.18
2019-05-21T03:31:27.932Z,21.21
2019-05-21T03:33:59.372Z,21.29
2019-05-21T03:36:33.926Z,21.34
2019-05-21T03:39:03.929Z,21.38
2019-05-21T03:41:35.375Z,21.35
2019-05-21T03:44:06.625Z,21.43
2019-05-21T03:46:38.096Z,21.46
2019-05-21T03:49:09.228Z,21.49
2019-05-21T03:51:40.275Z,21.48
2019-05-21T03:54:11.525Z,21.45
2019-05-21T03:56:42.670Z,21.51
2019-05-21T03:59:14.017Z,21.57
2019-05-21T04:01:45.480Z,21.63
2019-05-21T04:04:16.623Z,21.64
2019-05-21T04:06:51.941Z,21.67
2019-05-21T04:09:20.961Z,21.74
2019-05-21T04:11:53.398Z,21.76
2019-05-21T04:14:32.693Z,21.77
2019-05-21T04:17:08.538Z,21.70
2019-05-21T04:19:41.526Z,21.67
2019-05-21T04:22:15.947Z,21.64
2019-05-21T04:24:46.895Z,21.62
2019-05-21T04:27:17.968Z,21.48
2019-05-21T04:29:49.596Z,21.55
2019-05-21T04:32:21.053Z,21.55
2019-05-21T04:34:52.508Z,21.52
2019-05-21T04:37:23.960Z,21.51
2019-05-21T04:39:55.518Z,21.62
2019-05-21T04:42:27.077Z,21.69
2019-05-21T04:44:58.636Z,21.81
2019-05-21T04:47:30.306Z,21.86
2019-05-21T04:50:01.463Z,21.79
2019-05-21T04:52:32.890Z,21.83
2019-05-21T04:55:05.762Z,21.85
2019-05-21T04:57:37.499Z,21.92
2019-05-21T05:00:09.611Z,21.96
2019-05-21T05:02:40.965Z,22.01
2019-05-21T05:05:12.524Z,22.03
2019-05-21T05:07:44.175Z,22.17
2019-05-21T05:10:15.840Z,22.35
2019-05-21T05:12:47.389Z,22.49
2019-05-21T05:15:19.048Z,22.48
2019-05-21T05:17:50.521Z,22.41
2019-05-21T05:20:21.892Z,22.60
2019-05-21T05:22:53.079Z,22.70
2019-05-21T05:25:24.458Z,22.87
2019-05-21T05:27:55.713Z,23.08
2019-05-21T05:30:26.954Z,23.17
2019-05-21T05:32:58.362Z,23.24
2019-05-21T05:35:29.446Z,23.14
2019-05-21T05:38:00.494Z,23.32
2019-05-21T05:40:31.735Z,23.58
2019-05-21T05:43:03.193Z,23.97
2019-05-21T05:45:34.832Z,24.27
2019-05-21T05:48:06.304Z,24.40
2019-05-21T05:50:42.258Z,24.51
2019-05-21T05:53:13.611Z,24.56
2019-05-21T05:55:45.067Z,24.59
2019-05-21T05:58:16.313Z,24.80
2019-05-21T06:00:47.677Z,24.92
2019-05-21T06:03:18.838Z,25.01
2019-05-21T06:05:50.147Z,25.16
2019-05-21T06:08:21.723Z,25.28
2019-05-21T06:10:53.178Z,25.58
2019-05-21T06:13:24.219Z,25.78
2019-05-21T06:15:55.877Z,25.99
2019-05-21T06:18:27.333Z,26.44
2019-05-21T06:20:58.993Z,26.60
2019-05-21T06:23:30.653Z,26.59
2019-05-21T06:26:02.213Z,26.64
2019-05-21T06:28:33.355Z,26.61
2019-05-21T06:31:04.815Z,26.57
2019-05-21T06:33:37.185Z,26.47
2019-05-21T06:36:08.852Z,26.41
2019-05-21T06:38:40.399Z,26.39
2019-05-21T06:41:11.870Z,26.22
2019-05-21T06:43:43.109Z,26.01
2019-05-21T06:46:14.573Z,25.96
2019-05-21T06:48:45.818Z,25.90
2019-05-21T06:51:18.421Z,25.67
2019-05-21T06:53:50.068Z,25.59
2019-05-21T06:56:21.513Z,25.46
2019-05-21T06:58:52.762Z,25.39
2019-05-21T07:01:28.522Z,25.33
2019-05-21T07:03:57.515Z,25.20
2019-05-21T07:06:29.687Z,25.11
2019-05-21T07:09:01.144Z,25.05
2019-05-21T07:11:34.239Z,25.03
2019-05-21T07:14:06.001Z,25.06
2019-05-21T07:16:37.341Z,25.06
2019-05-21T07:19:08.606Z,25.11
2019-05-21T07:21:40.402Z,25.28
2019-05-21T07:24:11.343Z,25.38
2019-05-21T07:26:42.525Z,25.36
2019-05-21T07:29:14.478Z,25.49
2019-05-21T07:31:45.777Z,25.68
2019-05-21T07:34:16.913Z,25.96
2019-05-21T07:36:48.468Z,26.29
2019-05-21T07:39:19.372Z,26.62
2019-05-21T07:41:50.765Z,26.96
2019-05-21T07:44:21.811Z,27.19
2019-05-21T07:46:53.473Z,27.24
2019-05-21T07:49:24.829Z,27.42
2019-05-21T07:51:55.867Z,27.70
2019-05-21T07:54:28.166Z,27.92
2019-05-21T07:57:00.415Z,28.09
2019-05-21T07:59:31.766Z,28.18
2019-05-21T08:02:03.324Z,28.30
2019-05-21T08:04:34.835Z,28.37
2019-05-21T08:07:06.138Z,28.53
2019-05-21T08:09:37.376Z,28.68
2019-05-21T08:12:34.561Z,28.70
2019-05-21T08:14:41.613Z,28.58
2019-05-21T08:17:13.168Z,28.57
2019-05-21T08:19:44.213Z,28.52
2019-05-21T08:22:15.668Z,28.46
2019-05-21T08:24:46.924Z,28.48
2019-05-21T08:27:18.072Z,28.47
2019-05-21T08:29:49.624Z,28.42
2019-05-21T08:32:20.871Z,28.44
2019-05-21T08:34:52.220Z,28.49
2019-05-21T08:37:23.365Z,28.48
2019-05-21T08:39:54.301Z,28.56
2019-05-21T08:42:25.996Z,28.69
2019-05-21T08:44:57.315Z,28.98
2019-05-21T08:47:28.991Z,29.07
2019-05-21T08:50:00.324Z,28.95
2019-05-21T08:52:32.024Z,28.96
2019-05-21T08:55:05.188Z,29.00
2019-05-21T08:57:36.430Z,28.97
2019-05-21T09:00:09.156Z,28.94
2019-05-21T09:02:40.468Z,29.04
2019-05-21T09:05:11.841Z,28.94
2019-05-21T09:07:43.062Z,28.79
2019-05-21T09:10:14.617Z,28.43
2019-05-21T09:12:45.758Z,28.34
2019-05-21T09:15:17.113Z,28.20
2019-05-21T09:17:48.568Z,28.09
2019-05-21T09:20:19.923Z,27.84
2019-05-21T09:22:51.067Z,27.80
2019-05-21T09:25:22.423Z,27.62
2019-05-21T09:27:55.106Z,27.50
2019-05-21T09:30:27.999Z,27.42
2019-05-21T09:32:59.589Z,27.38
2019-05-21T09:35:30.693Z,27.27
2019-05-21T09:38:02.314Z,27.15
2019-05-21T09:40:33.395Z,27.17
2019-05-21T09:43:04.547Z,27.13
2019-05-21T09:45:35.995Z,27.26
2019-05-21T09:48:07.250Z,27.45
2019-05-21T09:50:38.501Z,27.73
2019-05-21T09:53:10.266Z,27.89
2019-05-21T09:59:50.859Z,28.23
2019-05-21T10:02:33.370Z,28.41
2019-05-21T10:05:06.288Z,28.67
2019-05-21T10:07:40.567Z,28.99
2019-05-21T10:10:11.430Z,29.33
2019-05-21T10:12:43.173Z,29.69
2019-05-21T10:15:14.222Z,30.03
2019-05-21T10:17:45.580Z,30.38
2019-05-21T10:20:17.243Z,30.54
2019-05-21T10:22:48.487Z,30.56
2019-05-21T10:25:19.731Z,30.45
2019-05-21T10:27:51.079Z,30.69
2019-05-21T10:30:22.541Z,30.68
2019-05-21T10:32:54.153Z,30.64
2019-05-21T10:35:25.745Z,30.65
2019-05-21T10:37:57.101Z,30.30
2019-05-21T10:40:28.664Z,30.06
2019-05-21T10:43:00.317Z,29.92
2019-05-21T10:45:31.564Z,29.72
2019-05-21T10:48:03.131Z,29.56
2019-05-21T10:50:34.368Z,29.25
2019-05-21T10:53:05.515Z,29.13
2019-05-21T10:55:36.562Z,29.01
2019-05-21T10:58:08.221Z,28.87
2019-05-21T11:00:39.567Z,28.80
2019-05-21T11:03:12.281Z,28.73
2019-05-21T11:05:45.235Z,28.75
2019-05-21T11:08:25.105Z,28.82
2019-05-21T11:10:49.780Z,28.86
2019-05-21T11:13:22.732Z,29.10
2019-05-21T11:15:54.739Z,29.63
2019-05-21T11:18:26.086Z,30.30
2019-05-21T11:20:57.433Z,31.24
2019-05-21T11:23:28.691Z,31.69
2019-05-21T11:25:59.949Z,32.00
2019-05-21T11:28:31.293Z,31.90
2019-05-21T11:31:02.993Z,31.93
2019-05-21T11:33:34.297Z,32.42
2019-05-21T11:36:05.757Z,33.06
2019-05-21T11:38:39.981Z,33.64
2019-05-21T11:41:10.299Z,33.92
2019-05-21T11:43:41.766Z,33.69
2019-05-21T11:46:13.299Z,33.60
2019-05-21T11:48:44.855Z,33.53
2019-05-21T11:51:16.486Z,33.39
2019-05-21T11:53:47.853Z,33.13
2019-05-21T11:56:19.407Z,32.98
2019-05-21T11:58:50.963Z,33.25
2019-05-21T12:01:22.098Z,33.20
2019-05-21T12:03:53.345Z,33.68
2019-05-21T12:06:24.603Z,33.84
2019-05-21T12:08:57.319Z,33.53
2019-05-21T12:11:28.733Z,33.75
2019-05-21T12:14:00.499Z,34.21
2019-05-21T12:16:31.957Z,34.37
2019-05-21T12:19:03.186Z,34.28
2019-05-21T12:21:34.436Z,34.19
2019-05-21T12:24:06.164Z,33.78
2019-05-21T12:26:37.741Z,33.39
2019-05-21T12:29:09.001Z,33.03
2019-05-21T12:31:40.667Z,32.85
2019-05-21T12:34:12.105Z,32.32
2019-05-21T12:36:43.760Z,31.99
2019-05-21T12:39:15.219Z,31.74
2019-05-21T12:41:46.779Z,31.54
2019-05-21T12:44:18.629Z,31.26
2019-05-21T12:46:50.179Z,31.24
2019-05-21T12:49:22.057Z,31.49
2019-05-21T12:51:53.086Z,31.56
2019-05-21T12:54:24.336Z,31.83
2019-05-21T12:56:55.891Z,32.20
2019-05-21T12:59:27.145Z,32.17
2019-05-21T13:01:58.796Z,32.02
2019-05-21T13:04:30.249Z,32.14
2019-05-21T13:07:01.407Z,31.79
2019-05-21T13:09:33.458Z,31.62
2019-05-21T13:12:04.668Z,32.05
2019-05-21T13:14:36.797Z,32.38
2019-05-21T13:17:08.549Z,32.74
2019-05-21T13:19:39.893Z,33.19
2019-05-21T13:22:11.546Z,33.05
2019-05-21T13:24:42.588Z,32.93
2019-05-21T13:27:13.984Z,33.17
2019-05-21T13:29:45.301Z,33.33
2019-05-21T13:32:16.645Z,33.63
2019-05-21T13:34:48.363Z,34.08
2019-05-21T13:37:19.675Z,34.29
2019-05-21T13:39:51.431Z,34.64
2019-05-21T13:42:22.649Z,34.86
2019-05-21T13:44:53.952Z,34.82
2019-05-21T13:47:25.557Z,34.45
2019-05-21T13:49:57.005Z,34.45
2019-05-21T13:52:28.661Z,34.29
2019-05-21T13:55:01.206Z,34.40
2019-05-21T13:57:33.004Z,34.52
2019-05-21T14:00:10.322Z,34.92
2019-05-21T14:02:41.735Z,35.26
2019-05-21T14:05:13.214Z,35.75
2019-05-21T14:07:44.739Z,36.53
2019-05-21T14:10:20.689Z,36.55
2019-05-21T14:12:51.158Z,36.22
2019-05-21T14:15:24.057Z,35.41
2019-05-21T14:17:57.809Z,34.58
2019-05-21T14:20:29.632Z,34.05
2019-05-21T14:23:01.534Z,34.21
2019-05-21T14:25:33.181Z,33.52
2019-05-21T14:28:04.701Z,32.45
2019-05-21T14:30:36.454Z,31.59
2019-05-21T14:33:07.839Z,31.15
2019-05-21T14:35:39.144Z,30.95
2019-05-21T14:38:10.638Z,30.68
2019-05-21T14:40:42.023Z,30.84
2019-05-21T14:43:13.434Z,31.63
2019-05-21T14:45:45.289Z,32.54
2019-05-21T14:48:20.476Z,33.09
2019-05-21T14:50:52.806Z,33.07
2019-05-21T14:53:24.051Z,33.47
2019-05-21T14:55:55.393Z,33.77
2019-05-21T14:58:29.146Z,34.01
2019-05-21T15:01:00.957Z,34.20
2019-05-21T15:03:33.250Z,33.67
2019-05-21T15:06:04.498Z,33.32
2019-05-21T15:08:36.134Z,33.20
2019-05-21T15:11:07.686Z,33.06
2019-05-21T15:13:39.044Z,32.77
2019-05-21T15:16:10.581Z,32.61
2019-05-21T15:18:41.939Z,32.85
2019-05-21T15:21:15.016Z,33.62
2019-05-21T15:23:47.927Z,34.13
2019-05-21T15:26:19.461Z,34.81
2019-05-21T15:28:51.131Z,35.13
2019-05-21T15:31:23.633Z,35.64
2019-05-21T15:33:54.833Z,36.39
2019-05-21T15:36:26.599Z,36.97
2019-05-21T15:38:57.990Z,37.17
2019-05-21T15:41:29.901Z,37.59
2019-05-21T15:44:01.459Z,37.77
2019-05-21T15:46:47.084Z,37.67
2019-05-21T15:49:05.946Z,37.52
2019-05-21T15:51:37.254Z,36.87
2019-05-21T15:54:08.589Z,36.49
2019-05-21T15:56:39.742Z,36.60
2019-05-21T15:59:10.868Z,36.89
2019-05-21T16:01:42.318Z,36.67
2019-05-21T16:04:16.397Z,36.45
2019-05-21T16:06:46.553Z,35.18
2019-05-21T16:09:18.309Z,34.32
2019-05-21T16:11:49.667Z,33.58
2019-05-21T16:14:21.516Z,32.60
2019-05-21T16:16:53.069Z,31.67
2019-05-21T16:19:24.218Z,30.70
2019-05-21T16:21:55.762Z,30.07
2019-05-21T16:24:27.627Z,29.41
2019-05-21T16:26:59.184Z,28.92
2019-05-21T16:29:30.540Z,28.56
2019-05-21T16:32:02.093Z,28.18
2019-05-21T16:34:33.837Z,27.80
2019-05-21T16:37:05.096Z,27.44
2019-05-21T16:39:36.736Z,27.22
2019-05-21T16:42:07.882Z,27.08
2019-05-21T16:44:39.555Z,26.99
2019-05-21T16:47:10.781Z,26.96
2019-05-21T16:49:42.438Z,26.86
2019-05-21T16:52:14.096Z,26.66
2019-05-21T16:54:45.984Z,26.72
2019-05-21T16:57:17.213Z,26.88
2019-05-21T16:59:48.665Z,26.77
2019-05-21T17:02:19.931Z,26.45
2019-05-21T17:04:51.457Z,26.19
2019-05-21T17:07:23.017Z,25.99
2019-05-21T17:09:54.442Z,25.76
2019-05-21T17:12:26.225Z,25.61
2019-05-21T17:14:58.920Z,25.43
2019-05-21T17:17:30.253Z,25.27
2019-05-21T17:20:02.725Z,25.13
2019-05-21T17:22:34.183Z,24.97
2019-05-21T17:25:07.067Z,24.86
2019-05-21T17:27:38.420Z,24.68
2019-05-21T17:30:10.078Z,24.54
2019-05-21T17:32:41.413Z,24.39
2019-05-21T17:35:12.869Z,24.29
2019-05-21T17:37:45.558Z,24.18
2019-05-21T17:40:17.436Z,24.14
2019-05-21T17:42:49.159Z,24.04
2019-05-21T17:45:20.993Z,23.97
2019-05-21T17:47:52.110Z,23.92
2019-05-21T17:50:23.517Z,23.88
2019-05-21T17:52:55.171Z,23.85
2019-05-21T17:55:26.624Z,23.77
2019-05-21T17:57:58.269Z,23.70
2019-05-21T18:00:40.593Z,23.67
2019-05-21T18:03:12.994Z,23.66
2019-05-21T18:05:45.538Z,23.64
2019-05-21T18:08:17.349Z,23.59
2019-05-21T18:10:50.872Z,23.53
2019-05-21T18:13:23.165Z,23.45
2019-05-21T18:15:55.532Z,23.38
2019-05-21T18:18:27.807Z,23.35
2019-05-21T18:20:59.056Z,23.30
2019-05-21T18:23:30.413Z,23.20
2019-05-21T18:26:02.575Z,23.15
2019-05-21T18:28:33.814Z,23.10
2019-05-21T18:31:06.536Z,23.03
2019-05-21T18:33:41.122Z,22.96
2019-05-21T18:36:12.408Z,22.90
2019-05-21T18:38:43.823Z,22.85
2019-05-21T18:41:15.173Z,22.78
2019-05-21T18:43:50.115Z,22.67
2019-05-21T18:46:20.647Z,22.60
2019-05-21T18:48:52.298Z,22.56
2019-05-21T18:51:23.755Z,22.53
2019-05-21T18:53:55.923Z,22.51
2019-05-21T18:56:27.465Z,22.47
2019-05-21T18:58:58.814Z,22.43
2019-05-21T19:01:30.363Z,22.41
2019-05-21T19:04:02.025Z,22.40
2019-05-21T19:06:33.310Z,22.38
2019-05-21T19:09:06.435Z,22.34
2019-05-21T19:11:38.117Z,22.30
2019-05-21T19:14:09.332Z,22.33
2019-05-21T19:16:42.198Z,22.32
2019-05-21T19:19:13.492Z,22.29
2019-05-21T19:21:45.046Z,22.29
2019-05-21T19:24:16.716Z,22.25
2019-05-21T19:26:48.264Z,22.23
2019-05-21T19:29:23.443Z,22.17
2019-05-21T19:31:55.279Z,22.14
2019-05-21T19:34:26.847Z,22.14
2019-05-21T19:36:58.697Z,22.13
2019-05-21T19:39:33.030Z,22.13
2019-05-21T19:42:04.619Z,22.15
2019-05-21T19:44:37.551Z,22.11
2019-05-21T19:47:09.500Z,22.07
2019-05-21T19:49:40.978Z,22.05
2019-05-21T19:52:12.731Z,22.01
2019-05-21T19:54:44.478Z,21.95
2019-05-21T19:57:16.571Z,21.89
2019-05-21T19:59:48.250Z,21.88
2019-05-21T20:02:20.625Z,21.88
2019-05-21T20:04:51.935Z,21.84
2019-05-21T20:07:24.712Z,21.84
2019-05-21T20:09:56.159Z,21.84
2019-05-21T20:12:27.853Z,21.81
2019-05-21T20:14:59.577Z,21.77
2019-05-21T20:17:31.162Z,21.75
2019-05-21T20:20:02.360Z,21.71
2019-05-21T20:22:34.132Z,21.71
2019-05-21T20:25:08.175Z,21.71
2019-05-21T20:27:40.033Z,21.72
2019-05-21T20:30:13.603Z,21.72
2019-05-21T20:32:46.716Z,21.68
2019-05-21T20:35:18.770Z,21.67
2019-05-21T20:37:51.429Z,21.66
2019-05-21T20:40:23.633Z,21.65
2019-05-21T20:42:55.494Z,21.65
2019-05-21T20:45:27.456Z,21.64
2019-05-21T20:47:58.910Z,21.66
2019-05-21T20:50:30.469Z,22.26
2019-05-21T20:53:02.174Z,22.27
2019-05-21T20:55:34.172Z,21.82
2019-05-21T20:58:05.816Z,21.74
2019-05-21T21:00:43.769Z,21.72
2019-05-21T21:03:15.586Z,21.76
2019-05-21T21:05:47.145Z,21.80
2019-05-21T21:08:19.738Z,22.09
2019-05-21T21:10:51.115Z,22.15
2019-05-21T21:13:22.844Z,22.20
2019-05-21T21:15:55.105Z,22.23
2019-05-21T21:18:26.596Z,22.21
2019-05-21T21:20:58.212Z,22.20
2019-05-21T21:23:31.436Z,22.20
2019-05-21T21:26:04.088Z,22.19
2019-05-21T21:28:35.319Z,22.14
2019-05-21T21:31:07.376Z,22.17
2019-05-21T21:33:39.018Z,22.18
2019-05-21T21:36:10.946Z,22.19
2019-05-21T21:38:42.744Z,22.20
2019-05-21T21:41:14.639Z,22.23
2019-05-21T21:43:46.184Z,22.22
2019-05-21T21:46:18.755Z,22.24
2019-05-21T21:48:50.824Z,22.25
2019-05-21T21:51:22.046Z,22.25
2019-05-21T21:53:53.619Z,22.29
2019-05-21T21:56:24.873Z,22.31
2019-05-21T21:58:56.219Z,22.29
2019-05-21T22:01:35.388Z,22.31
2019-05-21T22:04:07.516Z,22.30
2019-05-21T22:06:39.480Z,22.29
2019-05-21T22:09:12.234Z,22.28
2019-05-21T22:11:44.129Z,22.28
2019-05-21T22:14:16.088Z,22.25
2019-05-21T22:16:51.020Z,22.21
2019-05-21T22:19:20.741Z,22.17
2019-05-21T22:21:52.298Z,22.15
2019-05-21T22:24:24.278Z,22.14
2019-05-21T22:26:55.544Z,22.11
2019-05-21T22:29:27.281Z,22.07
2019-05-21T22:31:58.839Z,22.01
2019-05-21T22:34:30.633Z,21.99
2019-05-21T22:37:02.248Z,21.93
2019-05-21T22:39:34.116Z,21.89
2019-05-21T22:42:06.281Z,21.87
2019-05-21T22:44:38.248Z,21.85
2019-05-21T22:47:09.597Z,21.84
2019-05-21T22:49:40.743Z,21.84
2019-05-21T22:52:12.345Z,21.84
2019-05-21T22:54:43.645Z,21.84
2019-05-21T22:57:14.793Z,21.85
2019-05-21T22:59:46.765Z,21.84
2019-05-21T23:02:19.949Z,21.81
2019-05-21T23:04:52.098Z,21.82
2019-05-21T23:07:23.676Z,21.82
2019-05-21T23:09:55.540Z,21.81
2019-05-21T23:12:27.507Z,21.76
2019-05-21T23:14:59.464Z,21.71
2019-05-21T23:17:32.356Z,21.67
2019-05-21T23:20:14.467Z,21.64
2019-05-21T23:22:49.211Z,21.62
2019-05-21T23:25:22.526Z,21.63
2019-05-21T23:27:54.045Z,21.55
2019-05-21T23:30:26.521Z,21.59
2019-05-21T23:32:57.872Z,21.58
2019-05-21T23:35:29.114Z,21.56
2019-05-21T23:38:01.486Z,21.55
2019-05-21T23:40:34.796Z,21.54
2019-05-21T23:43:07.777Z,21.54
2019-05-21T23:45:39.229Z,21.52
2019-05-21T23:48:12.222Z,21.54
2019-05-21T23:50:44.091Z,21.51
2019-05-21T23:53:15.427Z,21.50
2019-05-21T23:55:47.391Z,21.49
2019-05-21T23:58:18.967Z,21.46
